sensor_id;sensor_type;location;lat;lon;timestamp;temperature;humidity
45012;DHT22;63444;48.148;11.542;2022-10-31T01:24:16;14.40;99.90
45012;DHT22;63444;48.148;11.542;2022-10-31T01:52:45;14.10;99.90
45012;DHT22;63444;48.148;11.542;2022-10-31T02:36:42;13.80;99.90
45012;DHT22;63444;48.148;11.542;2022-10-31T02:39:17;13.80;99.90
45012;DHT22;63444;48.148;11.542;2022-10-31T02:47:01;13.80;99.90
45012;DHT22;63444;48.148;11.542;2022-10-31T02:52:34;13.70;99.90
45012;DHT22;63444;48.148;11.542;2022-10-31T02:57:58;13.70;99.90
45012;DHT22;63444;48.148;11.542;2022-10-31T03:00:26;13.70;99.90
45012;DHT22;63444;48.148;11.542;2022-10-31T03:03:10;13.80;99.90
45012;DHT22;63444;48.148;11.542;2022-10-31T03:10:59;13.70;99.90
45012;DHT22;63444;48.148;11.542;2022-10-31T03:18:45;13.60;99.90
45012;DHT22;63444;48.148;11.542;2022-10-31T03:26:24;13.60;99.90
45012;DHT22;63444;48.148;11.542;2022-10-31T03:29:03;13.60;99.90
45012;DHT22;63444;48.148;11.542;2022-10-31T03:31:36;13.60;99.90
45012;DHT22;63444;48.148;11.542;2022-10-31T03:36:40;13.60;99.90
45012;DHT22;63444;48.148;11.542;2022-10-31T03:39:09;13.70;99.90
45012;DHT22;63444;48.148;11.542;2022-10-31T03:54:44;13.60;99.90
45012;DHT22;63444;48.148;11.542;2022-10-31T03:57:29;13.60;99.90
45012;DHT22;63444;48.148;11.542;2022-10-31T04:13:02;13.50;99.90
45012;DHT22;63444;48.148;11.542;2022-10-31T04:15:31;13.50;99.90
45012;DHT22;63444;48.148;11.542;2022-10-31T04:20:37;13.40;99.90
45012;DHT22;63444;48.148;11.542;2022-10-31T04:23:04;13.40;99.90
45012;DHT22;63444;48.148;11.542;2022-10-31T04:25:30;13.30;99.90
45012;DHT22;63444;48.148;11.542;2022-10-31T04:27:56;13.30;99.90
45012;DHT22;63444;48.148;11.542;2022-10-31T04:30:21;13.30;99.90
45012;DHT22;63444;48.148;11.542;2022-10-31T04:32:48;13.30;99.90
45012;DHT22;63444;48.148;11.542;2022-10-31T04:35:14;13.30;99.90
45012;DHT22;63444;48.148;11.542;2022-10-31T04:37:39;13.30;99.90
45012;DHT22;63444;48.148;11.542;2022-10-31T04:40:06;13.30;99.90
45012;DHT22;63444;48.148;11.542;2022-10-31T04:42:32;13.30;99.90
45012;DHT22;63444;48.148;11.542;2022-10-31T04:44:57;13.30;99.90
45012;DHT22;63444;48.148;11.542;2022-10-31T04:57:47;13.20;99.90
45012;DHT22;63444;48.148;11.542;2022-10-31T05:05:26;13.20;99.90
45012;DHT22;63444;48.148;11.542;2022-10-31T05:07:52;13.20;99.90
45012;DHT22;63444;48.148;11.542;2022-10-31T05:10:24;13.20;99.90
45012;DHT22;63444;48.148;11.542;2022-10-31T05:12:58;13.20;99.90
45012;DHT22;63444;48.148;11.542;2022-10-31T05:18:00;13.10;99.90
45012;DHT22;63444;48.148;11.542;2022-10-31T05:23:01;13.10;99.90
45012;DHT22;63444;48.148;11.542;2022-10-31T05:43:33;13.00;99.90
45012;DHT22;63444;48.148;11.542;2022-10-31T05:45:58;12.90;99.90
45012;DHT22;63444;48.148;11.542;2022-10-31T05:48:24;12.90;99.90
45012;DHT22;63444;48.148;11.542;2022-10-31T05:50:50;13.00;99.90
45012;DHT22;63444;48.148;11.542;2022-10-31T05:53:16;13.00;99.90
45012;DHT22;63444;48.148;11.542;2022-10-31T05:55:42;12.90;99.90
45012;DHT22;63444;48.148;11.542;2022-10-31T05:58:09;12.90;99.90
45012;DHT22;63444;48.148;11.542;2022-10-31T06:00:35;13.00;99.90
45012;DHT22;63444;48.148;11.542;2022-10-31T06:03:04;12.90;99.90
45012;DHT22;63444;48.148;11.542;2022-10-31T06:05:30;12.90;99.90
45012;DHT22;63444;48.148;11.542;2022-10-31T06:07:56;12.90;99.90
45012;DHT22;63444;48.148;11.542;2022-10-31T06:10:22;12.90;99.90
45012;DHT22;63444;48.148;11.542;2022-10-31T06:12:48;12.90;99.90
45012;DHT22;63444;48.148;11.542;2022-10-31T06:15:14;12.90;99.90
45012;DHT22;63444;48.148;11.542;2022-10-31T06:17:40;12.90;99.90
45012;DHT22;63444;48.148;11.542;2022-10-31T06:20:07;13.10;99.90
45012;DHT22;63444;48.148;11.542;2022-10-31T06:22:33;12.90;99.90
45012;DHT22;63444;48.148;11.542;2022-10-31T06:24:58;12.90;99.90
45012;DHT22;63444;48.148;11.542;2022-10-31T06:27:25;12.90;99.90
45012;DHT22;63444;48.148;11.542;2022-10-31T06:29:50;12.90;99.90
45012;DHT22;63444;48.148;11.542;2022-10-31T06:32:16;12.80;99.90
45012;DHT22;63444;48.148;11.542;2022-10-31T06:34:43;12.80;99.90
45012;DHT22;63444;48.148;11.542;2022-10-31T06:37:10;12.80;99.90
45012;DHT22;63444;48.148;11.542;2022-10-31T06:39:43;12.90;99.90
45012;DHT22;63444;48.148;11.542;2022-10-31T06:42:14;12.80;99.90
45012;DHT22;63444;48.148;11.542;2022-10-31T06:44:40;12.80;99.90
45012;DHT22;63444;48.148;11.542;2022-10-31T06:47:06;12.70;99.90
45012;DHT22;63444;48.148;11.542;2022-10-31T06:49:31;12.70;99.90
45012;DHT22;63444;48.148;11.542;2022-10-31T06:51:57;12.70;99.90
45012;DHT22;63444;48.148;11.542;2022-10-31T06:54:23;12.80;99.90
45012;DHT22;63444;48.148;11.542;2022-10-31T06:56:49;12.80;99.90
45012;DHT22;63444;48.148;11.542;2022-10-31T06:59:17;12.90;99.90
45012;DHT22;63444;48.148;11.542;2022-10-31T07:01:43;12.90;99.90
45012;DHT22;63444;48.148;11.542;2022-10-31T07:04:10;13.00;99.90
45012;DHT22;63444;48.148;11.542;2022-10-31T07:06:36;13.10;99.90
45012;DHT22;63444;48.148;11.542;2022-10-31T07:09:01;13.30;99.90
45012;DHT22;63444;48.148;11.542;2022-10-31T07:11:27;13.50;99.90
45012;DHT22;63444;48.148;11.542;2022-10-31T07:13:53;13.60;99.90
45012;DHT22;63444;48.148;11.542;2022-10-31T07:16:18;13.80;99.90
45012;DHT22;63444;48.148;11.542;2022-10-31T07:18:44;14.00;99.90
45012;DHT22;63444;48.148;11.542;2022-10-31T07:21:10;14.10;99.90
45012;DHT22;63444;48.148;11.542;2022-10-31T07:23:35;14.40;99.90
45012;DHT22;63444;48.148;11.542;2022-10-31T07:26:01;14.50;99.90
45012;DHT22;63444;48.148;11.542;2022-10-31T07:28:27;14.70;99.90
45012;DHT22;63444;48.148;11.542;2022-10-31T07:30:54;14.80;99.90
45012;DHT22;63444;48.148;11.542;2022-10-31T07:33:20;15.00;99.90
45012;DHT22;63444;48.148;11.542;2022-10-31T07:35:47;15.00;99.90
45012;DHT22;63444;48.148;11.542;2022-10-31T07:38:14;15.00;99.90
45012;DHT22;63444;48.148;11.542;2022-10-31T07:40:41;14.80;99.90
45012;DHT22;63444;48.148;11.542;2022-10-31T07:43:07;14.80;99.90
45012;DHT22;63444;48.148;11.542;2022-10-31T07:45:33;14.70;99.90
45012;DHT22;63444;48.148;11.542;2022-10-31T07:47:59;14.70;99.90
45012;DHT22;63444;48.148;11.542;2022-10-31T07:50:27;14.60;99.90
45012;DHT22;63444;48.148;11.542;2022-10-31T07:53:04;14.60;99.90
45012;DHT22;63444;48.148;11.542;2022-10-31T07:55:30;14.50;99.90
45012;DHT22;63444;48.148;11.542;2022-10-31T07:58:02;14.50;99.90
45012;DHT22;63444;48.148;11.542;2022-10-31T08:00:29;14.50;99.90
45012;DHT22;63444;48.148;11.542;2022-10-31T08:02:59;14.60;99.90
45012;DHT22;63444;48.148;11.542;2022-10-31T08:05:25;14.50;99.90
45012;DHT22;63444;48.148;11.542;2022-10-31T08:07:51;14.50;99.90
45012;DHT22;63444;48.148;11.542;2022-10-31T08:10:18;14.50;99.90
45012;DHT22;63444;48.148;11.542;2022-10-31T08:12:43;14.50;99.90
45012;DHT22;63444;48.148;11.542;2022-10-31T08:15:10;14.50;99.90
45012;DHT22;63444;48.148;11.542;2022-10-31T08:17:36;14.60;99.90
45012;DHT22;63444;48.148;11.542;2022-10-31T08:20:03;14.60;99.90
45012;DHT22;63444;48.148;11.542;2022-10-31T08:22:29;14.60;99.90
45012;DHT22;63444;48.148;11.542;2022-10-31T08:24:55;14.70;99.90
45012;DHT22;63444;48.148;11.542;2022-10-31T08:29:50;14.80;99.90
45012;DHT22;63444;48.148;11.542;2022-10-31T08:32:16;14.80;99.90
45012;DHT22;63444;48.148;11.542;2022-10-31T08:34:42;14.90;99.90
45012;DHT22;63444;48.148;11.542;2022-10-31T08:37:07;15.10;99.90
45012;DHT22;63444;48.148;11.542;2022-10-31T08:39:33;15.00;99.90
45012;DHT22;63444;48.148;11.542;2022-10-31T08:41:59;15.10;99.90
45012;DHT22;63444;48.148;11.542;2022-10-31T08:44:24;15.50;99.90
45012;DHT22;63444;48.148;11.542;2022-10-31T08:46:50;15.40;99.90
45012;DHT22;63444;48.148;11.542;2022-10-31T08:49:16;15.70;99.90
45012;DHT22;63444;48.148;11.542;2022-10-31T08:51:42;16.00;99.90
45012;DHT22;63444;48.148;11.542;2022-10-31T08:54:07;16.50;99.90
45012;DHT22;63444;48.148;11.542;2022-10-31T08:56:33;17.00;99.90
45012;DHT22;63444;48.148;11.542;2022-10-31T08:58:59;17.50;99.90
45012;DHT22;63444;48.148;11.542;2022-10-31T09:01:25;17.90;99.90
45012;DHT22;63444;48.148;11.542;2022-10-31T09:03:50;18.40;99.90
45012;DHT22;63444;48.148;11.542;2022-10-31T09:06:16;18.80;99.90
45012;DHT22;63444;48.148;11.542;2022-10-31T09:08:42;19.30;99.90
45012;DHT22;63444;48.148;11.542;2022-10-31T09:11:08;19.70;99.90
45012;DHT22;63444;48.148;11.542;2022-10-31T09:13:33;20.00;99.90
45012;DHT22;63444;48.148;11.542;2022-10-31T09:15:59;20.30;99.90
45012;DHT22;63444;48.148;11.542;2022-10-31T09:18:25;20.70;99.90
45012;DHT22;63444;48.148;11.542;2022-10-31T09:20:56;21.10;99.90
45012;DHT22;63444;48.148;11.542;2022-10-31T09:23:23;21.60;99.90
45012;DHT22;63444;48.148;11.542;2022-10-31T09:25:50;22.10;99.90
45012;DHT22;63444;48.148;11.542;2022-10-31T09:28:19;22.50;99.90
45012;DHT22;63444;48.148;11.542;2022-10-31T09:30:50;22.80;99.90
45012;DHT22;63444;48.148;11.542;2022-10-31T09:33:16;23.00;99.90
45012;DHT22;63444;48.148;11.542;2022-10-31T09:35:42;23.30;99.90
45012;DHT22;63444;48.148;11.542;2022-10-31T09:38:16;23.60;98.80
45012;DHT22;63444;48.148;11.542;2022-10-31T09:41:01;23.90;98.50
45012;DHT22;63444;48.148;11.542;2022-10-31T09:43:40;24.20;97.20
45012;DHT22;63444;48.148;11.542;2022-10-31T09:49:23;24.30;96.00
45012;DHT22;63444;48.148;11.542;2022-10-31T09:54:41;23.80;94.40
45012;DHT22;63444;48.148;11.542;2022-10-31T09:57:13;23.60;95.30
45012;DHT22;63444;48.148;11.542;2022-10-31T09:59:41;23.40;95.00
45012;DHT22;63444;48.148;11.542;2022-10-31T10:02:29;23.20;95.10
45012;DHT22;63444;48.148;11.542;2022-10-31T10:05:13;23.10;95.40
45012;DHT22;63444;48.148;11.542;2022-10-31T10:21:39;23.20;93.80
45012;DHT22;63444;48.148;11.542;2022-10-31T10:24:22;23.20;93.60
45012;DHT22;63444;48.148;11.542;2022-10-31T10:27:05;23.40;93.80
45012;DHT22;63444;48.148;11.542;2022-10-31T10:29:42;23.50;93.80
45012;DHT22;63444;48.148;11.542;2022-10-31T10:32:25;23.60;93.90
45012;DHT22;63444;48.148;11.542;2022-10-31T10:34:59;23.70;93.20
45012;DHT22;63444;48.148;11.542;2022-10-31T10:37:34;23.60;92.90
45012;DHT22;63444;48.148;11.542;2022-10-31T10:40:16;23.50;92.60
45012;DHT22;63444;48.148;11.542;2022-10-31T10:45:42;23.50;92.70
45012;DHT22;63444;48.148;11.542;2022-10-31T10:48:44;23.50;92.50
45012;DHT22;63444;48.148;11.542;2022-10-31T10:51:27;23.40;92.20
45012;DHT22;63444;48.148;11.542;2022-10-31T10:54:17;23.40;92.20
45012;DHT22;63444;48.148;11.542;2022-10-31T10:57:00;23.20;92.10
45012;DHT22;63444;48.148;11.542;2022-10-31T10:59:31;23.00;92.30
45012;DHT22;63444;48.148;11.542;2022-10-31T11:01:58;22.90;92.50
45012;DHT22;63444;48.148;11.542;2022-10-31T11:04:35;22.90;92.50
45012;DHT22;63444;48.148;11.542;2022-10-31T11:07:04;22.80;92.70
45012;DHT22;63444;48.148;11.542;2022-10-31T11:09:30;22.60;92.50
45012;DHT22;63444;48.148;11.542;2022-10-31T11:11:56;22.60;92.90
45012;DHT22;63444;48.148;11.542;2022-10-31T11:14:23;22.60;92.90
45012;DHT22;63444;48.148;11.542;2022-10-31T11:17:06;22.40;92.50
45012;DHT22;63444;48.148;11.542;2022-10-31T11:19:33;22.50;92.60
45012;DHT22;63444;48.148;11.542;2022-10-31T11:22:07;22.50;91.80
45012;DHT22;63444;48.148;11.542;2022-10-31T11:24:39;22.50;91.50
45012;DHT22;63444;48.148;11.542;2022-10-31T11:27:21;22.50;91.60
45012;DHT22;63444;48.148;11.542;2022-10-31T11:29:48;22.60;91.60
45012;DHT22;63444;48.148;11.542;2022-10-31T11:32:22;22.80;91.60
45012;DHT22;63444;48.148;11.542;2022-10-31T11:35:02;22.90;91.60
45012;DHT22;63444;48.148;11.542;2022-10-31T11:37:34;23.00;91.50
45012;DHT22;63444;48.148;11.542;2022-10-31T11:40:05;23.20;91.50
45012;DHT22;63444;48.148;11.542;2022-10-31T11:42:40;23.30;91.00
45012;DHT22;63444;48.148;11.542;2022-10-31T11:45:31;23.40;91.10
45012;DHT22;63444;48.148;11.542;2022-10-31T11:47:58;23.60;90.40
45012;DHT22;63444;48.148;11.542;2022-10-31T11:50:40;23.70;90.40
45012;DHT22;63444;48.148;11.542;2022-10-31T11:53:18;24.10;90.40
45012;DHT22;63444;48.148;11.542;2022-10-31T11:55:45;24.80;90.00
45012;DHT22;63444;48.148;11.542;2022-10-31T11:58:21;25.40;87.50
45012;DHT22;63444;48.148;11.542;2022-10-31T12:00:52;25.80;85.00
45012;DHT22;63444;48.148;11.542;2022-10-31T12:06:12;25.30;83.90
45012;DHT22;63444;48.148;11.542;2022-10-31T12:08:40;24.90;84.30
45012;DHT22;63444;48.148;11.542;2022-10-31T12:16:52;23.90;86.20
45012;DHT22;63444;48.148;11.542;2022-10-31T12:25:48;23.20;89.10
45012;DHT22;63444;48.148;11.542;2022-10-31T12:28:16;23.10;89.80
45012;DHT22;63444;48.148;11.542;2022-10-31T12:36:45;22.70;90.40
45012;DHT22;63444;48.148;11.542;2022-10-31T12:57:58;22.70;91.60
45012;DHT22;63444;48.148;11.542;2022-10-31T13:00:26;22.70;91.50
45012;DHT22;63444;48.148;11.542;2022-10-31T13:05:37;22.80;91.70
45012;DHT22;63444;48.148;11.542;2022-10-31T13:08:27;22.80;91.70
45012;DHT22;63444;48.148;11.542;2022-10-31T13:13:42;22.70;92.00
45012;DHT22;63444;48.148;11.542;2022-10-31T13:16:19;22.60;92.00
45012;DHT22;63444;48.148;11.542;2022-10-31T13:21:26;22.60;92.40
45012;DHT22;63444;48.148;11.542;2022-10-31T13:23:52;22.50;92.60
45012;DHT22;63444;48.148;11.542;2022-10-31T13:26:45;22.50;92.70
45012;DHT22;63444;48.148;11.542;2022-10-31T13:29:20;22.50;92.80
45012;DHT22;63444;48.148;11.542;2022-10-31T13:31:47;22.50;92.80
45012;DHT22;63444;48.148;11.542;2022-10-31T13:34:32;22.50;93.30
45012;DHT22;63444;48.148;11.542;2022-10-31T13:40:07;22.40;93.10
45012;DHT22;63444;48.148;11.542;2022-10-31T13:45:32;22.30;93.40
45012;DHT22;63444;48.148;11.542;2022-10-31T13:48:17;22.30;93.60
45012;DHT22;63444;48.148;11.542;2022-10-31T13:50:56;22.30;93.70
45012;DHT22;63444;48.148;11.542;2022-10-31T13:56:16;22.10;94.10
45012;DHT22;63444;48.148;11.542;2022-10-31T14:01:22;22.00;94.40
45012;DHT22;63444;48.148;11.542;2022-10-31T14:11:54;21.80;94.70
45012;DHT22;63444;48.148;11.542;2022-10-31T14:14:26;21.70;94.70
45012;DHT22;63444;48.148;11.542;2022-10-31T14:16:56;21.80;94.80
45012;DHT22;63444;48.148;11.542;2022-10-31T14:19:23;21.70;94.90
45012;DHT22;63444;48.148;11.542;2022-10-31T14:21:50;21.60;94.90
45012;DHT22;63444;48.148;11.542;2022-10-31T14:24:32;21.70;95.10
45012;DHT22;63444;48.148;11.542;2022-10-31T14:27:01;21.60;95.10
45012;DHT22;63444;48.148;11.542;2022-10-31T14:29:32;21.60;95.30
45012;DHT22;63444;48.148;11.542;2022-10-31T14:34:43;21.60;96.30
45012;DHT22;63444;48.148;11.542;2022-10-31T14:50:54;21.30;98.80
45012;DHT22;63444;48.148;11.542;2022-10-31T14:53:45;21.30;99.20
45012;DHT22;63444;48.148;11.542;2022-10-31T14:56:11;21.30;99.80
45012;DHT22;63444;48.148;11.542;2022-10-31T14:58:38;21.20;99.90
45012;DHT22;63444;48.148;11.542;2022-10-31T15:01:05;21.20;99.90
45012;DHT22;63444;48.148;11.542;2022-10-31T15:03:35;21.10;99.90
45012;DHT22;63444;48.148;11.542;2022-10-31T15:06:09;21.10;99.90
45012;DHT22;63444;48.148;11.542;2022-10-31T15:08:44;21.10;99.90
45012;DHT22;63444;48.148;11.542;2022-10-31T15:11:19;21.00;99.90
45012;DHT22;63444;48.148;11.542;2022-10-31T15:13:58;20.90;99.90
45012;DHT22;63444;48.148;11.542;2022-10-31T15:16:34;21.00;99.90
45012;DHT22;63444;48.148;11.542;2022-10-31T15:19:22;20.80;99.90
45012;DHT22;63444;48.148;11.542;2022-10-31T15:21:51;20.80;99.90
45012;DHT22;63444;48.148;11.542;2022-10-31T15:24:18;20.80;99.90
45012;DHT22;63444;48.148;11.542;2022-10-31T15:26:46;20.80;99.90
45012;DHT22;63444;48.148;11.542;2022-10-31T15:29:17;20.70;99.90
45012;DHT22;63444;48.148;11.542;2022-10-31T15:34:22;20.50;99.90
45012;DHT22;63444;48.148;11.542;2022-10-31T15:36:51;20.60;99.90
45012;DHT22;63444;48.148;11.542;2022-10-31T15:39:17;20.50;99.90
45012;DHT22;63444;48.148;11.542;2022-10-31T15:41:54;20.50;99.90
45012;DHT22;63444;48.148;11.542;2022-10-31T15:44:28;20.40;99.90
45012;DHT22;63444;48.148;11.542;2022-10-31T15:49:49;20.30;99.90
45012;DHT22;63444;48.148;11.542;2022-10-31T15:55:16;20.20;99.90
45012;DHT22;63444;48.148;11.542;2022-10-31T15:57:48;20.20;99.90
45012;DHT22;63444;48.148;11.542;2022-10-31T16:00:32;20.10;99.90
45012;DHT22;63444;48.148;11.542;2022-10-31T16:03:07;20.10;99.90
45012;DHT22;63444;48.148;11.542;2022-10-31T16:05:38;20.00;99.90
45012;DHT22;63444;48.148;11.542;2022-10-31T16:08:04;20.00;99.90
45012;DHT22;63444;48.148;11.542;2022-10-31T16:10:33;19.90;99.90
45012;DHT22;63444;48.148;11.542;2022-10-31T16:13:00;19.90;99.90
45012;DHT22;63444;48.148;11.542;2022-10-31T16:15:27;19.80;99.90
45012;DHT22;63444;48.148;11.542;2022-10-31T16:17:53;19.80;99.90
45012;DHT22;63444;48.148;11.542;2022-10-31T16:20:21;19.80;99.90
45012;DHT22;63444;48.148;11.542;2022-10-31T16:22:49;19.70;99.90
45012;DHT22;63444;48.148;11.542;2022-10-31T16:25:34;19.70;99.90
45012;DHT22;63444;48.148;11.542;2022-10-31T16:28:14;19.70;99.90
45012;DHT22;63444;48.148;11.542;2022-10-31T16:30:43;19.60;99.90
45012;DHT22;63444;48.148;11.542;2022-10-31T16:33:35;19.60;99.90
45012;DHT22;63444;48.148;11.542;2022-10-31T16:38:54;19.40;99.90
45012;DHT22;63444;48.148;11.542;2022-10-31T16:41:20;19.30;99.90
45012;DHT22;63444;48.148;11.542;2022-10-31T16:43:46;19.30;99.90
45012;DHT22;63444;48.148;11.542;2022-10-31T16:46:18;19.20;99.90
45012;DHT22;63444;48.148;11.542;2022-10-31T16:48:44;19.10;99.90
45012;DHT22;63444;48.148;11.542;2022-10-31T16:51:09;19.00;99.90
45012;DHT22;63444;48.148;11.542;2022-10-31T16:53:35;19.00;99.90
45012;DHT22;63444;48.148;11.542;2022-10-31T16:56:03;18.90;99.90
45012;DHT22;63444;48.148;11.542;2022-10-31T16:58:43;18.90;99.90
45012;DHT22;63444;48.148;11.542;2022-10-31T17:01:10;18.90;99.90
45012;DHT22;63444;48.148;11.542;2022-10-31T17:03:36;18.80;99.90
45012;DHT22;63444;48.148;11.542;2022-10-31T17:06:02;18.80;99.90
45012;DHT22;63444;48.148;11.542;2022-10-31T17:08:28;18.80;99.90
45012;DHT22;63444;48.148;11.542;2022-10-31T17:10:56;18.70;99.90
45012;DHT22;63444;48.148;11.542;2022-10-31T17:13:26;18.70;99.90
45012;DHT22;63444;48.148;11.542;2022-10-31T17:15:56;18.60;99.90
45012;DHT22;63444;48.148;11.542;2022-10-31T17:18:22;18.70;99.90
45012;DHT22;63444;48.148;11.542;2022-10-31T17:20:49;18.50;99.90
45012;DHT22;63444;48.148;11.542;2022-10-31T17:23:16;18.50;99.90
45012;DHT22;63444;48.148;11.542;2022-10-31T17:25:42;18.50;99.90
45012;DHT22;63444;48.148;11.542;2022-10-31T17:28:12;18.50;99.90
45012;DHT22;63444;48.148;11.542;2022-10-31T17:30:39;18.40;99.90
45012;DHT22;63444;48.148;11.542;2022-10-31T17:33:06;18.30;99.90
45012;DHT22;63444;48.148;11.542;2022-10-31T17:35:32;18.30;99.90
45012;DHT22;63444;48.148;11.542;2022-10-31T17:37:57;18.20;99.90
45012;DHT22;63444;48.148;11.542;2022-10-31T17:40:23;18.10;99.90
45012;DHT22;63444;48.148;11.542;2022-10-31T17:42:53;18.10;99.90
45012;DHT22;63444;48.148;11.542;2022-10-31T17:45:21;18.10;99.90
45012;DHT22;63444;48.148;11.542;2022-10-31T17:47:48;18.00;99.90
45012;DHT22;63444;48.148;11.542;2022-10-31T17:50:24;18.00;99.90
45012;DHT22;63444;48.148;11.542;2022-10-31T17:52:50;17.90;99.90
45012;DHT22;63444;48.148;11.542;2022-10-31T17:55:16;17.90;99.90
45012;DHT22;63444;48.148;11.542;2022-10-31T17:57:42;17.80;99.90
45012;DHT22;63444;48.148;11.542;2022-10-31T18:00:16;17.70;99.90
45012;DHT22;63444;48.148;11.542;2022-10-31T18:02:42;17.70;99.90
45012;DHT22;63444;48.148;11.542;2022-10-31T18:05:08;17.60;99.90
45012;DHT22;63444;48.148;11.542;2022-10-31T18:07:34;17.70;99.90
45012;DHT22;63444;48.148;11.542;2022-10-31T18:10:00;17.60;99.90
45012;DHT22;63444;48.148;11.542;2022-10-31T18:12:26;17.50;99.90
45012;DHT22;63444;48.148;11.542;2022-10-31T18:14:52;17.50;99.90
45012;DHT22;63444;48.148;11.542;2022-10-31T18:17:19;17.50;99.90
45012;DHT22;63444;48.148;11.542;2022-10-31T18:19:44;17.40;99.90
45012;DHT22;63444;48.148;11.542;2022-10-31T18:22:11;17.40;99.90
45012;DHT22;63444;48.148;11.542;2022-10-31T18:24:36;17.40;99.90
45012;DHT22;63444;48.148;11.542;2022-10-31T18:27:02;17.30;99.90
45012;DHT22;63444;48.148;11.542;2022-10-31T18:29:28;17.30;99.90
45012;DHT22;63444;48.148;11.542;2022-10-31T18:31:54;17.20;99.90
45012;DHT22;63444;48.148;11.542;2022-10-31T18:34:19;17.10;99.90
45012;DHT22;63444;48.148;11.542;2022-10-31T18:36:45;17.10;99.90
45012;DHT22;63444;48.148;11.542;2022-10-31T18:39:11;17.10;99.90
45012;DHT22;63444;48.148;11.542;2022-10-31T18:41:38;17.10;99.90
45012;DHT22;63444;48.148;11.542;2022-10-31T18:44:07;17.20;99.90
45012;DHT22;63444;48.148;11.542;2022-10-31T18:46:33;17.00;99.90
45012;DHT22;63444;48.148;11.542;2022-10-31T18:49:00;16.90;99.90
45012;DHT22;63444;48.148;11.542;2022-10-31T18:51:26;16.80;99.90
45012;DHT22;63444;48.148;11.542;2022-10-31T18:53:54;16.90;99.90
45012;DHT22;63444;48.148;11.542;2022-10-31T18:56:21;16.80;99.90
45012;DHT22;63444;48.148;11.542;2022-10-31T18:58:47;16.80;99.90
45012;DHT22;63444;48.148;11.542;2022-10-31T19:01:14;16.70;99.90
45012;DHT22;63444;48.148;11.542;2022-10-31T19:03:40;16.70;99.90
45012;DHT22;63444;48.148;11.542;2022-10-31T19:06:07;16.60;99.90
45012;DHT22;63444;48.148;11.542;2022-10-31T19:08:34;16.60;99.90
45012;DHT22;63444;48.148;11.542;2022-10-31T19:11:10;16.70;99.90
45012;DHT22;63444;48.148;11.542;2022-10-31T19:13:37;16.50;99.90
45012;DHT22;63444;48.148;11.542;2022-10-31T19:16:11;16.50;99.90
45012;DHT22;63444;48.148;11.542;2022-10-31T19:18:39;16.50;99.90
45012;DHT22;63444;48.148;11.542;2022-10-31T19:21:11;16.50;99.90
45012;DHT22;63444;48.148;11.542;2022-10-31T19:23:37;16.40;99.90
45012;DHT22;63444;48.148;11.542;2022-10-31T19:26:03;16.30;99.90
45012;DHT22;63444;48.148;11.542;2022-10-31T19:28:31;16.30;99.90
45012;DHT22;63444;48.148;11.542;2022-10-31T19:30:57;16.30;99.90
45012;DHT22;63444;48.148;11.542;2022-10-31T19:33:23;16.20;99.90
45012;DHT22;63444;48.148;11.542;2022-10-31T19:35:51;16.20;99.90
45012;DHT22;63444;48.148;11.542;2022-10-31T19:38:17;16.10;99.90
45012;DHT22;63444;48.148;11.542;2022-10-31T19:40:42;16.10;99.90
45012;DHT22;63444;48.148;11.542;2022-10-31T19:43:08;16.10;99.90
45012;DHT22;63444;48.148;11.542;2022-10-31T19:45:34;16.10;99.90
45012;DHT22;63444;48.148;11.542;2022-10-31T19:47:59;16.00;99.90
45012;DHT22;63444;48.148;11.542;2022-10-31T19:50:25;16.00;99.90
45012;DHT22;63444;48.148;11.542;2022-10-31T19:52:52;16.00;99.90
45012;DHT22;63444;48.148;11.542;2022-10-31T19:55:17;16.00;99.90
45012;DHT22;63444;48.148;11.542;2022-10-31T19:57:43;15.90;99.90
45012;DHT22;63444;48.148;11.542;2022-10-31T20:00:09;15.80;99.90
45012;DHT22;63444;48.148;11.542;2022-10-31T20:02:35;15.80;99.90
45012;DHT22;63444;48.148;11.542;2022-10-31T20:05:00;15.60;99.90
45012;DHT22;63444;48.148;11.542;2022-10-31T20:07:26;15.70;99.90
45012;DHT22;63444;48.148;11.542;2022-10-31T20:09:52;15.70;99.90
45012;DHT22;63444;48.148;11.542;2022-10-31T20:12:18;15.70;99.90
45012;DHT22;63444;48.148;11.542;2022-10-31T20:14:43;15.60;99.90
45012;DHT22;63444;48.148;11.542;2022-10-31T20:17:09;15.80;99.90
45012;DHT22;63444;48.148;11.542;2022-10-31T20:19:35;15.60;99.90
45012;DHT22;63444;48.148;11.542;2022-10-31T20:22:00;15.60;99.90
45012;DHT22;63444;48.148;11.542;2022-10-31T20:24:26;15.60;99.90
45012;DHT22;63444;48.148;11.542;2022-10-31T20:26:51;15.50;99.90
45012;DHT22;63444;48.148;11.542;2022-10-31T20:29:17;15.50;99.90
45012;DHT22;63444;48.148;11.542;2022-10-31T20:31:45;15.50;99.90
45012;DHT22;63444;48.148;11.542;2022-10-31T20:34:11;15.50;99.90
45012;DHT22;63444;48.148;11.542;2022-10-31T20:36:37;15.40;99.90
45012;DHT22;63444;48.148;11.542;2022-10-31T20:39:03;15.40;99.90
45012;DHT22;63444;48.148;11.542;2022-10-31T20:41:29;15.40;99.90
45012;DHT22;63444;48.148;11.542;2022-10-31T20:43:54;15.40;99.90
45012;DHT22;63444;48.148;11.542;2022-10-31T20:46:24;15.40;99.90
45012;DHT22;63444;48.148;11.542;2022-10-31T20:48:52;15.30;99.90
45012;DHT22;63444;48.148;11.542;2022-10-31T20:51:26;15.30;99.90
45012;DHT22;63444;48.148;11.542;2022-10-31T20:53:57;15.20;99.90
45012;DHT22;63444;48.148;11.542;2022-10-31T20:56:25;15.20;99.90
45012;DHT22;63444;48.148;11.542;2022-10-31T20:58:52;15.10;99.90
45012;DHT22;63444;48.148;11.542;2022-10-31T21:01:25;15.10;99.90
45012;DHT22;63444;48.148;11.542;2022-10-31T21:03:52;15.10;99.90
45012;DHT22;63444;48.148;11.542;2022-10-31T21:06:19;15.10;99.90
45012;DHT22;63444;48.148;11.542;2022-10-31T21:08:45;15.00;99.90
45012;DHT22;63444;48.148;11.542;2022-10-31T21:11:13;15.00;99.90
45012;DHT22;63444;48.148;11.542;2022-10-31T21:13:41;14.90;99.90
45012;DHT22;63444;48.148;11.542;2022-10-31T21:16:10;15.00;99.90
45012;DHT22;63444;48.148;11.542;2022-10-31T21:21:14;14.80;99.90
45012;DHT22;63444;48.148;11.542;2022-10-31T21:23:41;15.00;99.90
45012;DHT22;63444;48.148;11.542;2022-10-31T21:26:17;14.90;99.90
45012;DHT22;63444;48.148;11.542;2022-10-31T21:28:45;14.80;99.90
45012;DHT22;63444;48.148;11.542;2022-10-31T21:31:15;14.70;99.90
45012;DHT22;63444;48.148;11.542;2022-10-31T21:33:42;14.80;99.90
45012;DHT22;63444;48.148;11.542;2022-10-31T21:36:09;14.90;99.90
45012;DHT22;63444;48.148;11.542;2022-10-31T21:38:35;14.70;99.90